Time,TemperatureF,DewpointF,PressureIn,WindDirection,WindDirectionDegrees,WindSpeedMPH,WindSpeedGustMPH,Humidity,HourlyPrecipIn,Conditions,Clouds,dailyrainin,SoftwareType,DateUTC
2013-04-16 00:01:00,39.0,35.0,30.43,East,83,0.0,-999.0,84,-99.99,,,0.00,weatherlink.com 1.10,2013-04-16 04:01:00,
2013-04-16 00:16:00,38.1,34.0,30.43,East,83,0.0,-999.0,85,-99.99,,,0.00,weatherlink.com 1.10,2013-04-16 04:16:00,
2013-04-16 00:31:00,37.7,34.0,30.42,East,83,0.0,-999.0,87,-99.99,,,0.00,weatherlink.com 1.10,2013-04-16 04:31:00,
2013-04-16 00:46:00,37.5,34.0,30.43,East,83,0.0,-999.0,87,-99.99,,,0.00,weatherlink.com 1.10,2013-04-16 04:46:00,
2013-04-16 01:01:00,37.3,34.0,30.43,East,83,0.0,-999.0,87,-99.99,,,0.00,weatherlink.com 1.10,2013-04-16 05:01:00,
2013-04-16 01:16:00,37.1,34.0,30.43,East,83,0.0,-999.0,88,-99.99,,,0.00,weatherlink.com 1.10,2013-04-16 05:16:00,
2013-04-16 01:31:00,37.1,34.0,30.43,East,83,0.0,-999.0,88,-99.99,,,0.00,weatherlink.com 1.10,2013-04-16 05:31:00,
2013-04-16 01:46:00,36.8,34.0,30.43,East,83,0.0,-999.0,88,-99.99,,,0.00,weatherlink.com 1.10,2013-04-16 05:46:00,
2013-04-16 02:01:00,36.2,33.0,30.43,East,83,0.0,-999.0,88,-99.99,,,0.00,weatherlink.com 1.10,2013-04-16 06:01:00,
2013-04-16 02:16:00,35.5,32.0,30.42,East,83,0.0,-999.0,88,-99.99,,,0.00,weatherlink.com 1.10,2013-04-16 06:16:00,
2013-04-16 02:32:00,34.6,32.0,30.42,East,83,0.0,-999.0,89,-99.99,,,0.00,weatherlink.com 1.10,2013-04-16 06:32:00,
2013-04-16 02:47:00,34.0,31.0,30.42,East,83,0.0,-999.0,89,-99.99,,,0.00,weatherlink.com 1.10,2013-04-16 06:47:00,
2013-04-16 03:02:00,33.4,31.0,30.43,East,83,0.0,-999.0,90,-99.99,,,0.00,weatherlink.com 1.10,2013-04-16 07:02:00,
2013-04-16 03:17:00,32.8,31.0,30.43,East,83,0.0,-999.0,91,-99.99,,,0.00,weatherlink.com 1.10,2013-04-16 07:17:00,
2013-04-16 03:32:00,32.3,30.0,30.43,East,83,0.0,-999.0,92,-99.99,,,0.00,weatherlink.com 1.10,2013-04-16 07:32:00,
2013-04-16 03:47:00,32.0,30.0,30.42,East,83,0.0,-999.0,92,-99.99,,,0.00,weatherlink.com 1.10,2013-04-16 07:47:00,
2013-04-16 04:02:00,31.7,30.0,30.42,East,83,0.0,-999.0,92,-99.99,,,0.00,weatherlink.com 1.10,2013-04-16 08:02:00,
2013-04-16 04:17:00,31.3,30.0,30.42,East,83,0.0,-999.0,93,-99.99,,,0.00,weatherlink.com 1.10,2013-04-16 08:17:00,
2013-04-16 04:32:00,31.1,29.0,30.41,East,83,0.0,-999.0,93,-99.99,,,0.00,weatherlink.com 1.10,2013-04-16 08:32:00,
2013-04-16 04:47:00,30.8,29.0,30.42,East,83,0.0,-999.0,93,-99.99,,,0.00,weatherlink.com 1.10,2013-04-16 08:47:00,
2013-04-16 05:02:00,30.5,29.0,30.42,East,83,0.0,-999.0,93,-99.99,,,0.00,weatherlink.com 1.10,2013-04-16 09:02:00,
2013-04-16 05:17:00,30.3,29.0,30.41,East,83,0.0,-999.0,94,-99.99,,,0.00,weatherlink.com 1.10,2013-04-16 09:17:00,
2013-04-16 05:32:00,30.1,29.0,30.41,East,83,0.0,-999.0,94,-99.99,,,0.00,weatherlink.com 1.10,2013-04-16 09:32:00,
2013-04-16 05:47:00,29.9,28.0,30.41,East,83,0.0,-999.0,94,-99.99,,,0.00,weatherlink.com 1.10,2013-04-16 09:47:00,
2013-04-16 06:02:00,29.7,28.0,30.41,East,83,0.0,-999.0,94,-99.99,,,0.00,weatherlink.com 1.10,2013-04-16 10:02:00,
2013-04-16 06:17:00,29.6,28.0,30.41,East,83,0.0,-999.0,94,-99.99,,,0.00,weatherlink.com 1.10,2013-04-16 10:17:00,
2013-04-16 06:32:00,29.7,29.0,30.42,East,83,0.0,-999.0,95,-99.99,,,0.00,weatherlink.com 1.10,2013-04-16 10:32:00,
2013-04-16 06:47:00,30.0,29.0,30.42,East,83,0.0,-999.0,95,-99.99,,,0.00,weatherlink.com 1.10,2013-04-16 10:47:00,
2013-04-16 07:02:00,31.1,30.0,30.41,East,83,0.0,-999.0,96,-99.99,,,0.00,weatherlink.com 1.10,2013-04-16 11:02:00,
2013-04-16 07:17:00,32.6,32.0,30.41,East,83,0.0,-999.0,96,-99.99,,,0.00,weatherlink.com 1.10,2013-04-16 11:17:00,
2013-04-16 07:32:00,33.7,33.0,30.41,East,83,0.0,-999.0,96,-99.99,,,0.00,weatherlink.com 1.10,2013-04-16 11:32:00,
2013-04-16 07:47:00,35.7,35.0,30.41,East,83,0.0,-999.0,96,-99.99,,,0.00,weatherlink.com 1.10,2013-04-16 11:47:00,
2013-04-16 08:02:00,39.2,38.0,30.41,East,88,0.0,-999.0,94,-99.99,,,0.00,weatherlink.com 1.10,2013-04-16 12:02:00,
2013-04-16 08:17:00,44.2,38.0,30.41,ENE,71,4.0,-999.0,80,-99.99,,,0.00,weatherlink.com 1.10,2013-04-16 12:17:00,
2013-04-16 08:32:00,45.7,39.0,30.40,NNW,332,0.0,-999.0,77,-99.99,,,0.00,weatherlink.com 1.10,2013-04-16 12:32:00,
2013-04-16 08:47:00,46.7,39.0,30.40,ENE,78,1.0,-999.0,75,-99.99,,,0.00,weatherlink.com 1.10,2013-04-16 12:47:00,
2013-04-16 09:02:00,47.5,39.0,30.39,ENE,70,1.0,-999.0,73,-99.99,,,0.00,weatherlink.com 1.10,2013-04-16 13:02:00,
2013-04-16 09:17:00,47.8,39.0,30.39,ESE,120,7.0,-999.0,71,-99.99,,,0.00,weatherlink.com 1.10,2013-04-16 13:17:00,
2013-04-16 09:32:00,48.2,40.0,30.39,East,94,7.0,-999.0,72,-99.99,,,0.00,weatherlink.com 1.10,2013-04-16 13:32:00,
2013-04-16 09:47:00,49.1,40.0,30.38,SW,214,1.0,-999.0,70,-99.99,,,0.00,weatherlink.com 1.10,2013-04-16 13:47:00,
2013-04-16 10:02:00,50.6,41.0,30.37,SE,142,1.0,-999.0,69,-99.99,,,0.00,weatherlink.com 1.10,2013-04-16 14:02:00,
2013-04-16 10:17:00,51.9,41.0,30.37,ENE,72,2.0,-999.0,67,-99.99,,,0.00,weatherlink.com 1.10,2013-04-16 14:17:00,
2013-04-16 10:33:00,55.3,44.0,30.36,ESE,123,3.0,-999.0,67,-99.99,,,0.00,weatherlink.com 1.10,2013-04-16 14:33:00,
2013-04-16 10:48:00,55.8,42.0,30.37,ENE,70,7.0,-999.0,61,-99.99,,,0.00,weatherlink.com 1.10,2013-04-16 14:48:00,
2013-04-16 11:03:00,57.1,42.0,30.36,NNW,348,1.0,-999.0,58,-99.99,,,0.00,weatherlink.com 1.10,2013-04-16 15:03:00,
2013-04-16 11:18:00,58.0,41.0,30.34,SSE,157,3.0,-999.0,54,-99.99,,,0.00,weatherlink.com 1.10,2013-04-16 15:18:00,
2013-04-16 11:33:00,58.8,42.0,30.33,East,95,3.0,-999.0,54,-99.99,,,0.00,weatherlink.com 1.10,2013-04-16 15:33:00,
2013-04-16 11:48:00,60.7,43.0,30.32,SSE,158,3.0,-999.0,52,-99.99,,,0.00,weatherlink.com 1.10,2013-04-16 15:48:00,
2013-04-16 12:03:00,60.6,42.0,30.30,ESE,103,2.0,-999.0,51,-99.99,,,0.00,weatherlink.com 1.10,2013-04-16 16:03:00,
2013-04-16 12:18:00,61.9,43.0,30.29,West,259,3.0,-999.0,51,-99.99,,,0.00,weatherlink.com 1.10,2013-04-16 16:18:00,
2013-04-16 12:33:00,62.5,44.0,30.27,SW,216,5.0,-999.0,51,-99.99,,,0.00,weatherlink.com 1.10,2013-04-16 16:33:00,
2013-04-16 12:48:00,63.4,44.0,30.26,SE,142,2.0,-999.0,50,-99.99,,,0.00,weatherlink.com 1.10,2013-04-16 16:48:00,
2013-04-16 13:03:00,64.3,45.0,30.26,ENE,67,9.0,-999.0,49,-99.99,,,0.00,weatherlink.com 1.10,2013-04-16 17:03:00,
2013-04-16 13:18:00,65.6,46.0,30.25,West,279,3.0,-999.0,49,-99.99,,,0.00,weatherlink.com 1.10,2013-04-16 17:18:00,
2013-04-16 13:33:00,66.3,46.0,30.24,WSW,237,3.0,-999.0,48,-99.99,,,0.00,weatherlink.com 1.10,2013-04-16 17:33:00,
2013-04-16 13:48:00,67.5,45.0,30.23,North,10,3.0,-999.0,45,-99.99,,,0.00,weatherlink.com 1.10,2013-04-16 17:48:00,
2013-04-16 14:03:00,67.9,46.0,30.23,NNE,22,9.0,-999.0,45,-99.99,,,0.00,weatherlink.com 1.10,2013-04-16 18:03:00,
2013-04-16 14:18:00,65.8,45.0,30.22,SE,131,6.0,-999.0,48,-99.99,,,0.00,weatherlink.com 1.10,2013-04-16 18:18:00,
2013-04-16 14:33:00,66.2,45.0,30.21,NE,38,3.0,-999.0,46,-99.99,,,0.00,weatherlink.com 1.10,2013-04-16 18:33:00,
2013-04-16 14:48:00,66.9,46.0,30.18,SE,138,10.0,-999.0,47,-99.99,,,0.00,weatherlink.com 1.10,2013-04-16 18:48:00,
2013-04-16 15:03:00,65.8,45.0,30.19,ENE,67,3.0,-999.0,48,-99.99,,,0.00,weatherlink.com 1.10,2013-04-16 19:03:00,
2013-04-16 15:18:00,65.2,45.0,30.19,SE,138,9.0,-999.0,48,-99.99,,,0.00,weatherlink.com 1.10,2013-04-16 19:18:00,
2013-04-16 15:33:00,64.5,46.0,30.19,NE,44,3.0,-999.0,52,-99.99,,,0.00,weatherlink.com 1.10,2013-04-16 19:33:00,
2013-04-16 15:49:00,61.6,49.0,30.20,ENE,71,0.0,-999.0,63,-99.99,,,0.00,weatherlink.com 1.10,2013-04-16 19:49:00,
2013-04-16 16:04:00,61.4,49.0,30.19,SSW,209,2.0,-999.0,63,-99.99,,,0.01,weatherlink.com 1.10,2013-04-16 20:04:00,
2013-04-16 16:19:00,59.9,49.0,30.17,ESE,107,3.0,-999.0,68,-99.99,,,0.01,weatherlink.com 1.10,2013-04-16 20:19:00,
2013-04-16 16:34:00,59.0,49.0,30.16,SW,231,7.0,-999.0,70,-99.99,,,0.02,weatherlink.com 1.10,2013-04-16 20:34:00,
2013-04-16 16:49:00,58.0,50.0,30.16,WSW,254,1.0,-999.0,76,-99.99,,,0.02,weatherlink.com 1.10,2013-04-16 20:49:00,
2013-04-16 17:04:00,57.9,50.0,30.16,ENE,57,6.0,-999.0,74,-99.99,,,0.02,weatherlink.com 1.10,2013-04-16 21:04:00,
2013-04-16 17:19:00,58.0,49.0,30.16,ESE,123,3.0,-999.0,73,-99.99,,,0.02,weatherlink.com 1.10,2013-04-16 21:19:00,
2013-04-16 17:34:00,57.5,49.0,30.16,SSE,159,2.0,-999.0,74,-99.99,,,0.02,weatherlink.com 1.10,2013-04-16 21:34:00,
2013-04-16 17:49:00,57.4,50.0,30.16,SW,236,3.0,-999.0,75,-99.99,,,0.02,weatherlink.com 1.10,2013-04-16 21:49:00,
2013-04-16 18:05:00,57.1,49.0,30.15,East,95,0.0,-999.0,74,-99.99,,,0.02,weatherlink.com 1.10,2013-04-16 22:05:00,
2013-04-16 18:19:00,56.9,49.0,30.14,SSE,152,2.0,-999.0,75,-99.99,,,0.02,weatherlink.com 1.10,2013-04-16 22:19:00,
2013-04-16 18:35:00,56.9,49.0,30.13,ENE,76,2.0,-999.0,75,-99.99,,,0.02,weatherlink.com 1.10,2013-04-16 22:35:00,
2013-04-16 19:20:00,56.8,49.0,30.14,SSE,161,3.0,-999.0,75,-99.99,,,0.02,weatherlink.com 1.10,2013-04-16 23:20:00,
2013-04-16 19:35:00,56.5,49.0,30.14,East,79,0.0,-999.0,76,-99.99,,,0.02,weatherlink.com 1.10,2013-04-16 23:35:00,
2013-04-16 19:50:00,56.3,49.0,30.14,SW,231,2.0,-999.0,77,-99.99,,,0.02,weatherlink.com 1.10,2013-04-16 23:50:00,
2013-04-16 20:05:00,56.2,49.0,30.13,East,84,8.0,-999.0,78,-99.99,,,0.02,weatherlink.com 1.10,2013-04-17 00:05:00,
2013-04-16 20:20:00,56.0,50.0,30.13,SW,230,0.0,-999.0,79,-99.99,,,0.02,weatherlink.com 1.10,2013-04-17 00:20:00,
2013-04-16 20:35:00,56.1,50.0,30.13,NW,321,1.0,-999.0,79,-99.99,,,0.02,weatherlink.com 1.10,2013-04-17 00:35:00,
2013-04-16 20:50:00,56.2,50.0,30.12,WSW,246,3.0,-999.0,80,-99.99,,,0.02,weatherlink.com 1.10,2013-04-17 00:50:00,
2013-04-16 21:05:00,56.2,50.0,30.12,SSW,194,1.0,-999.0,80,-99.99,,,0.02,weatherlink.com 1.10,2013-04-17 01:05:00,
2013-04-16 21:20:00,56.3,51.0,30.11,ENE,74,6.0,-999.0,81,-99.99,,,0.02,weatherlink.com 1.10,2013-04-17 01:20:00,
2013-04-16 21:35:00,56.3,51.0,30.11,SSW,201,3.0,-999.0,82,-99.99,,,0.02,weatherlink.com 1.10,2013-04-17 01:35:00,
2013-04-16 21:50:00,56.4,51.0,30.11,SSE,147,1.0,-999.0,82,-99.99,,,0.02,weatherlink.com 1.10,2013-04-17 01:50:00,
2013-04-16 22:05:00,56.5,51.0,30.11,SE,143,2.0,-999.0,83,-99.99,,,0.02,weatherlink.com 1.10,2013-04-17 02:05:00,
2013-04-16 22:19:00,56.6,52.0,30.10,SE,146,0.0,-999.0,83,-99.99,,,0.02,weatherlink.com 1.10,2013-04-17 02:19:00,
2013-04-16 22:35:00,56.7,52.0,30.09,SE,126,0.0,-999.0,83,-99.99,,,0.02,weatherlink.com 1.10,2013-04-17 02:35:00,
2013-04-16 22:50:00,56.7,52.0,30.09,East,88,5.0,-999.0,83,-99.99,,,0.02,weatherlink.com 1.10,2013-04-17 02:50:00,
2013-04-16 23:05:00,57.0,52.0,30.10,SE,134,2.0,-999.0,83,-99.99,,,0.02,weatherlink.com 1.10,2013-04-17 03:05:00,
2013-04-16 23:20:00,57.1,52.0,30.10,SW,224,0.0,-999.0,83,-99.99,,,0.02,weatherlink.com 1.10,2013-04-17 03:20:00,
2013-04-16 23:35:00,57.3,52.0,30.10,NE,55,3.0,-999.0,83,-99.99,,,0.02,weatherlink.com 1.10,2013-04-17 03:35:00,
2013-04-16 23:50:00,57.6,52.0,30.09,SSE,165,2.0,-999.0,82,-99.99,,,0.02,weatherlink.com 1.10,2013-04-17 03:50:00,